sensor_id;sensor_type;location;lat;lon;timestamp;pressure;altitude;pressure_sealevel;temperature;humidity
6034;BME280;3045;43.226;27.858;2023-12-22T00:01:57;54950.06;;;2.55;100.00
6034;BME280;3045;43.226;27.858;2023-12-22T00:04:24;56098.78;;;2.46;100.00
6034;BME280;3045;43.226;27.858;2023-12-22T00:06:51;55565.97;;;2.20;100.00
6034;BME280;3045;43.226;27.858;2023-12-22T00:09:18;55104.25;;;2.33;100.00
6034;BME280;3045;43.226;27.858;2023-12-22T00:11:45;54304.03;;;2.42;100.00
6034;BME280;3045;43.226;27.858;2023-12-22T00:14:12;50283.47;;;2.63;100.00
6034;BME280;3045;43.226;27.858;2023-12-22T00:16:41;47427.50;;;2.75;100.00
6034;BME280;3045;43.226;27.858;2023-12-22T00:19:08;45989.44;;;2.87;100.00
6034;BME280;3045;43.226;27.858;2023-12-22T00:21:35;47388.72;;;2.86;100.00
6034;BME280;3045;43.226;27.858;2023-12-22T00:24:02;53502.41;;;2.71;100.00
6034;BME280;3045;43.226;27.858;2023-12-22T00:26:30;57337.16;;;2.64;100.00
6034;BME280;3045;43.226;27.858;2023-12-22T00:28:56;57434.94;;;2.74;100.00
6034;BME280;3045;43.226;27.858;2023-12-22T00:31:23;56159.19;;;2.77;100.00
6034;BME280;3045;43.226;27.858;2023-12-22T00:33:52;53543.53;;;2.86;100.00
6034;BME280;3045;43.226;27.858;2023-12-22T00:36:19;51902.31;;;2.88;100.00
6034;BME280;3045;43.226;27.858;2023-12-22T00:38:50;50329.91;;;3.02;100.00
6034;BME280;3045;43.226;27.858;2023-12-22T00:41:17;47490.47;;;3.09;100.00
6034;BME280;3045;43.226;27.858;2023-12-22T00:43:44;45562.13;;;3.25;100.00
6034;BME280;3045;43.226;27.858;2023-12-22T00:46:12;44584.22;;;3.37;100.00
6034;BME280;3045;43.226;27.858;2023-12-22T00:48:39;47915.59;;;3.42;100.00
6034;BME280;3045;43.226;27.858;2023-12-22T00:51:08;48673.50;;;3.50;100.00
6034;BME280;3045;43.226;27.858;2023-12-22T00:53:35;49344.03;;;3.55;100.00
6034;BME280;3045;43.226;27.858;2023-12-22T00:56:02;52087.84;;;3.63;100.00
6034;BME280;3045;43.226;27.858;2023-12-22T00:58:30;55765.72;;;3.58;100.00
6034;BME280;3045;43.226;27.858;2023-12-22T01:00:57;61883.38;;;3.54;100.00
6034;BME280;3045;43.226;27.858;2023-12-22T01:03:24;70954.22;;;3.50;100.00
6034;BME280;3045;43.226;27.858;2023-12-22T01:05:51;77158.47;;;3.15;100.00
6034;BME280;3045;43.226;27.858;2023-12-22T01:08:20;76637.56;;;3.09;100.00
6034;BME280;3045;43.226;27.858;2023-12-22T01:10:47;77083.63;;;2.91;100.00
6034;BME280;3045;43.226;27.858;2023-12-22T01:13:14;76787.25;;;3.02;100.00
6034;BME280;3045;43.226;27.858;2023-12-22T01:15:42;74391.75;;;2.98;100.00
6034;BME280;3045;43.226;27.858;2023-12-22T01:18:10;67779.13;;;3.10;100.00
6034;BME280;3045;43.226;27.858;2023-12-22T01:20:37;60246.91;;;3.15;100.00
6034;BME280;3045;43.226;27.858;2023-12-22T01:23:04;55170.03;;;3.31;100.00
6034;BME280;3045;43.226;27.858;2023-12-22T01:25:32;52342.13;;;3.34;100.00
6034;BME280;3045;43.226;27.858;2023-12-22T01:27:59;49963.00;;;3.49;100.00
6034;BME280;3045;43.226;27.858;2023-12-22T01:30:26;51997.81;;;3.55;100.00
6034;BME280;3045;43.226;27.858;2023-12-22T01:32:53;61288.38;;;3.33;100.00
6034;BME280;3045;43.226;27.858;2023-12-22T01:35:20;68864.50;;;3.13;100.00
6034;BME280;3045;43.226;27.858;2023-12-22T01:37:47;71480.25;;;3.06;100.00
6034;BME280;3045;43.226;27.858;2023-12-22T01:40:15;72716.25;;;2.95;100.00
6034;BME280;3045;43.226;27.858;2023-12-22T01:42:43;70991.81;;;2.77;100.00
6034;BME280;3045;43.226;27.858;2023-12-22T01:45:11;66101.13;;;2.51;100.00
6034;BME280;3045;43.226;27.858;2023-12-22T01:47:38;57606.94;;;2.45;100.00
6034;BME280;3045;43.226;27.858;2023-12-22T01:50:06;50822.09;;;2.01;100.00
6034;BME280;3045;43.226;27.858;2023-12-22T01:52:36;48311.13;;;2.25;100.00
6034;BME280;3045;43.226;27.858;2023-12-22T01:55:04;48198.25;;;1.95;100.00
6034;BME280;3045;43.226;27.858;2023-12-22T01:57:33;48642.22;;;1.86;100.00
6034;BME280;3045;43.226;27.858;2023-12-22T02:00:03;47360.81;;;1.82;100.00
6034;BME280;3045;43.226;27.858;2023-12-22T02:02:30;48969.00;;;1.85;100.00
6034;BME280;3045;43.226;27.858;2023-12-22T02:04:58;50898.00;;;1.74;100.00
6034;BME280;3045;43.226;27.858;2023-12-22T02:07:26;52799.75;;;1.65;100.00
6034;BME280;3045;43.226;27.858;2023-12-22T02:09:54;54214.38;;;1.75;100.00
6034;BME280;3045;43.226;27.858;2023-12-22T02:12:21;55706.72;;;1.84;100.00
6034;BME280;3045;43.226;27.858;2023-12-22T02:14:48;57980.94;;;1.83;100.00
6034;BME280;3045;43.226;27.858;2023-12-22T02:17:22;60258.03;;;1.80;100.00
6034;BME280;3045;43.226;27.858;2023-12-22T02:19:51;60306.78;;;1.94;100.00
6034;BME280;3045;43.226;27.858;2023-12-22T02:22:19;60996.97;;;1.82;100.00
6034;BME280;3045;43.226;27.858;2023-12-22T02:24:47;61112.44;;;1.85;100.00
6034;BME280;3045;43.226;27.858;2023-12-22T02:27:21;60580.38;;;1.92;100.00
6034;BME280;3045;43.226;27.858;2023-12-22T02:29:52;60752.69;;;1.89;100.00
6034;BME280;3045;43.226;27.858;2023-12-22T02:32:23;60315.56;;;2.00;100.00
6034;BME280;3045;43.226;27.858;2023-12-22T02:34:53;62278.22;;;2.04;100.00
6034;BME280;3045;43.226;27.858;2023-12-22T02:37:22;64162.81;;;2.02;100.00
6034;BME280;3045;43.226;27.858;2023-12-22T02:39:52;65989.50;;;1.92;100.00
6034;BME280;3045;43.226;27.858;2023-12-22T02:42:21;65618.59;;;1.70;100.00
6034;BME280;3045;43.226;27.858;2023-12-22T02:44:55;63388.94;;;1.71;100.00
6034;BME280;3045;43.226;27.858;2023-12-22T02:47:23;64882.91;;;1.79;100.00
6034;BME280;3045;43.226;27.858;2023-12-22T02:49:50;64209.69;;;1.85;100.00
6034;BME280;3045;43.226;27.858;2023-12-22T02:52:17;63411.72;;;1.99;100.00
6034;BME280;3045;43.226;27.858;2023-12-22T02:54:44;62408.53;;;2.08;100.00
6034;BME280;3045;43.226;27.858;2023-12-22T02:57:14;64935.38;;;2.06;100.00
6034;BME280;3045;43.226;27.858;2023-12-22T02:59:41;64775.34;;;2.15;100.00
6034;BME280;3045;43.226;27.858;2023-12-22T03:02:08;65006.69;;;2.22;100.00
6034;BME280;3045;43.226;27.858;2023-12-22T03:04:35;65829.88;;;2.11;100.00
6034;BME280;3045;43.226;27.858;2023-12-22T03:07:02;65713.09;;;2.16;100.00
6034;BME280;3045;43.226;27.858;2023-12-22T03:09:29;64269.88;;;2.40;100.00
6034;BME280;3045;43.226;27.858;2023-12-22T03:11:57;63265.75;;;2.42;100.00
6034;BME280;3045;43.226;27.858;2023-12-22T03:14:29;62521.19;;;2.55;100.00
6034;BME280;3045;43.226;27.858;2023-12-22T03:16:57;64388.22;;;2.56;100.00
6034;BME280;3045;43.226;27.858;2023-12-22T03:19:24;65546.81;;;2.32;100.00
6034;BME280;3045;43.226;27.858;2023-12-22T03:21:51;65889.25;;;2.63;100.00
6034;BME280;3045;43.226;27.858;2023-12-22T03:24:18;65875.41;;;2.69;100.00
6034;BME280;3045;43.226;27.858;2023-12-22T03:26:46;65183.50;;;2.75;100.00
6034;BME280;3045;43.226;27.858;2023-12-22T03:29:13;64489.56;;;2.72;100.00
6034;BME280;3045;43.226;27.858;2023-12-22T03:31:42;64070.72;;;2.85;100.00
6034;BME280;3045;43.226;27.858;2023-12-22T03:34:09;65179.16;;;2.64;100.00
6034;BME280;3045;43.226;27.858;2023-12-22T03:36:36;65472.28;;;2.61;100.00
6034;BME280;3045;43.226;27.858;2023-12-22T03:39:03;66708.50;;;2.72;100.00
6034;BME280;3045;43.226;27.858;2023-12-22T03:41:30;69453.16;;;2.66;100.00
6034;BME280;3045;43.226;27.858;2023-12-22T03:43:57;70443.16;;;2.73;100.00
6034;BME280;3045;43.226;27.858;2023-12-22T03:46:25;71909.09;;;2.33;100.00
6034;BME280;3045;43.226;27.858;2023-12-22T03:48:53;70104.13;;;2.27;100.00
6034;BME280;3045;43.226;27.858;2023-12-22T03:51:20;68394.97;;;2.09;100.00
6034;BME280;3045;43.226;27.858;2023-12-22T03:53:47;65251.50;;;2.12;100.00
6034;BME280;3045;43.226;27.858;2023-12-22T03:56:14;62783.75;;;2.07;100.00
6034;BME280;3045;43.226;27.858;2023-12-22T03:58:41;61593.97;;;2.25;100.00
6034;BME280;3045;43.226;27.858;2023-12-22T04:01:08;61531.09;;;2.23;100.00
6034;BME280;3045;43.226;27.858;2023-12-22T04:03:35;61372.53;;;1.99;100.00
6034;BME280;3045;43.226;27.858;2023-12-22T04:06:04;58368.16;;;1.84;100.00
6034;BME280;3045;43.226;27.858;2023-12-22T04:08:32;57539.22;;;2.02;100.00
6034;BME280;3045;43.226;27.858;2023-12-22T04:10:59;57906.91;;;1.97;100.00
6034;BME280;3045;43.226;27.858;2023-12-22T04:13:28;57522.19;;;2.05;100.00
6034;BME280;3045;43.226;27.858;2023-12-22T04:15:59;58139.59;;;2.16;100.00
6034;BME280;3045;43.226;27.858;2023-12-22T04:18:27;59973.06;;;2.22;100.00
6034;BME280;3045;43.226;27.858;2023-12-22T04:20:54;61215.31;;;2.28;100.00
6034;BME280;3045;43.226;27.858;2023-12-22T04:23:23;61564.19;;;2.30;100.00
6034;BME280;3045;43.226;27.858;2023-12-22T04:25:50;62444.88;;;2.23;100.00
6034;BME280;3045;43.226;27.858;2023-12-22T04:28:18;63487.13;;;2.10;100.00
6034;BME280;3045;43.226;27.858;2023-12-22T04:30:45;62184.00;;;2.38;100.00
6034;BME280;3045;43.226;27.858;2023-12-22T04:33:12;63254.91;;;2.39;100.00
6034;BME280;3045;43.226;27.858;2023-12-22T04:35:39;64965.59;;;2.40;100.00
6034;BME280;3045;43.226;27.858;2023-12-22T04:38:07;65683.47;;;2.39;100.00
6034;BME280;3045;43.226;27.858;2023-12-22T04:40:36;68484.91;;;2.25;100.00
6034;BME280;3045;43.226;27.858;2023-12-22T04:43:03;68167.88;;;2.29;100.00
6034;BME280;3045;43.226;27.858;2023-12-22T04:45:30;68810.81;;;2.20;100.00
6034;BME280;3045;43.226;27.858;2023-12-22T04:47:57;68500.53;;;2.09;100.00
6034;BME280;3045;43.226;27.858;2023-12-22T04:50:24;65466.78;;;1.92;100.00
6034;BME280;3045;43.226;27.858;2023-12-22T04:52:51;63447.06;;;1.80;100.00
6034;BME280;3045;43.226;27.858;2023-12-22T04:55:18;63149.94;;;1.68;100.00
6034;BME280;3045;43.226;27.858;2023-12-22T04:57:47;58961.13;;;1.76;100.00
6034;BME280;3045;43.226;27.858;2023-12-22T05:00:14;58623.13;;;1.84;100.00
6034;BME280;3045;43.226;27.858;2023-12-22T05:02:42;58744.63;;;1.95;100.00
6034;BME280;3045;43.226;27.858;2023-12-22T05:05:10;57498.66;;;2.02;100.00
6034;BME280;3045;43.226;27.858;2023-12-22T05:07:37;59062.22;;;1.92;100.00
6034;BME280;3045;43.226;27.858;2023-12-22T05:10:06;58893.94;;;1.74;100.00
6034;BME280;3045;43.226;27.858;2023-12-22T05:12:34;61309.59;;;1.87;100.00
6034;BME280;3045;43.226;27.858;2023-12-22T05:15:03;60552.94;;;1.94;100.00
6034;BME280;3045;43.226;27.858;2023-12-22T05:17:30;60827.75;;;1.96;100.00
6034;BME280;3045;43.226;27.858;2023-12-22T05:19:58;59445.06;;;1.92;100.00
6034;BME280;3045;43.226;27.858;2023-12-22T05:22:25;58997.19;;;2.17;100.00
6034;BME280;3045;43.226;27.858;2023-12-22T05:24:55;59786.25;;;2.28;100.00
6034;BME280;3045;43.226;27.858;2023-12-22T05:27:22;61343.38;;;2.38;100.00
6034;BME280;3045;43.226;27.858;2023-12-22T05:29:50;61765.59;;;2.48;100.00
6034;BME280;3045;43.226;27.858;2023-12-22T05:32:18;62224.06;;;2.56;100.00
6034;BME280;3045;43.226;27.858;2023-12-22T05:34:45;64090.72;;;2.46;100.00
6034;BME280;3045;43.226;27.858;2023-12-22T05:37:12;63033.25;;;2.48;100.00
6034;BME280;3045;43.226;27.858;2023-12-22T05:39:39;61715.56;;;2.50;100.00
6034;BME280;3045;43.226;27.858;2023-12-22T05:42:07;61820.09;;;2.59;100.00
6034;BME280;3045;43.226;27.858;2023-12-22T05:44:34;63686.03;;;2.57;100.00
6034;BME280;3045;43.226;27.858;2023-12-22T05:47:01;62008.88;;;2.52;100.00
6034;BME280;3045;43.226;27.858;2023-12-22T05:49:30;60581.81;;;2.60;100.00
6034;BME280;3045;43.226;27.858;2023-12-22T05:51:57;59049.53;;;2.66;100.00
6034;BME280;3045;43.226;27.858;2023-12-22T05:54:24;57086.28;;;2.87;100.00
6034;BME280;3045;43.226;27.858;2023-12-22T05:56:51;56002.59;;;3.04;100.00
6034;BME280;3045;43.226;27.858;2023-12-22T05:59:18;55328.63;;;3.15;100.00
6034;BME280;3045;43.226;27.858;2023-12-22T06:01:45;55707.91;;;3.29;100.00
6034;BME280;3045;43.226;27.858;2023-12-22T06:04:12;55510.25;;;3.43;100.00
6034;BME280;3045;43.226;27.858;2023-12-22T06:06:41;57117.28;;;3.56;100.00
6034;BME280;3045;43.226;27.858;2023-12-22T06:09:08;61046.00;;;3.58;100.00
6034;BME280;3045;43.226;27.858;2023-12-22T06:11:37;62570.63;;;3.64;100.00
6034;BME280;3045;43.226;27.858;2023-12-22T06:14:05;61594.81;;;3.54;100.00
6034;BME280;3045;43.226;27.858;2023-12-22T06:16:32;59679.66;;;3.69;100.00
6034;BME280;3045;43.226;27.858;2023-12-22T06:18:59;56810.44;;;3.94;100.00
6034;BME280;3045;43.226;27.858;2023-12-22T06:21:26;56184.06;;;4.11;100.00
6034;BME280;3045;43.226;27.858;2023-12-22T06:23:54;56527.28;;;4.34;100.00
6034;BME280;3045;43.226;27.858;2023-12-22T06:26:21;61044.53;;;4.43;100.00
6034;BME280;3045;43.226;27.858;2023-12-22T06:28:47;70736.00;;;4.53;100.00
6034;BME280;3045;43.226;27.858;2023-12-22T06:31:21;82415.44;;;4.71;100.00
6034;BME280;3045;43.226;27.858;2023-12-22T06:33:49;87014.91;;;5.09;100.00
6034;BME280;3045;43.226;27.858;2023-12-22T06:36:20;109515.38;;;5.10;100.00
6034;BME280;3045;43.226;27.858;2023-12-22T06:38:47;138877.22;;;5.12;100.00
6034;BME280;3045;43.226;27.858;2023-12-22T06:41:22;147105.06;;;5.27;100.00
6034;BME280;3045;43.226;27.858;2023-12-22T06:43:50;147406.53;;;5.39;100.00
6034;BME280;3045;43.226;27.858;2023-12-22T06:46:19;147409.06;;;5.40;100.00
6034;BME280;3045;43.226;27.858;2023-12-22T06:48:46;147485.88;;;5.71;100.00
6034;BME280;3045;43.226;27.858;2023-12-22T06:51:20;147518.63;;;5.84;100.00
6034;BME280;3045;43.226;27.858;2023-12-22T06:53:48;147541.34;;;5.93;100.00
6034;BME280;3045;43.226;27.858;2023-12-22T06:56:17;147567.75;;;6.04;100.00
6034;BME280;3045;43.226;27.858;2023-12-22T06:58:46;147558.94;;;6.01;100.00
6034;BME280;3045;43.226;27.858;2023-12-22T07:01:18;147614.38;;;6.23;100.00
6034;BME280;3045;43.226;27.858;2023-12-22T07:03:46;147581.63;;;6.10;100.00
6034;BME280;3045;43.226;27.858;2023-12-22T07:06:13;147560.22;;;6.01;100.00
6034;BME280;3045;43.226;27.858;2023-12-22T07:08:40;147558.94;;;6.01;100.00
6034;BME280;3045;43.226;27.858;2023-12-22T07:11:08;147565.22;;;6.03;100.00
6034;BME280;3045;43.226;27.858;2023-12-22T07:13:35;147628.19;;;6.28;100.00
6034;BME280;3045;43.226;27.858;2023-12-22T07:16:04;147674.81;;;6.47;100.00
6034;BME280;3045;43.226;27.858;2023-12-22T07:18:32;147715.13;;;6.63;100.00
6034;BME280;3045;43.226;27.858;2023-12-22T07:20:59;147723.94;;;6.67;100.00
6034;BME280;3045;43.226;27.858;2023-12-22T07:23:27;147764.31;;;6.83;100.00
6034;BME280;3045;43.226;27.858;2023-12-22T07:25:54;147808.38;;;7.01;100.00
6034;BME280;3045;43.226;27.858;2023-12-22T07:28:21;147849.97;;;7.17;100.00
6034;BME280;3045;43.226;27.858;2023-12-22T07:30:48;147882.75;;;7.30;100.00
6034;BME280;3045;43.226;27.858;2023-12-22T07:33:16;147879.00;;;7.29;100.00
6034;BME280;3045;43.226;27.858;2023-12-22T07:35:43;147891.59;;;7.34;100.00
6034;BME280;3045;43.226;27.858;2023-12-22T07:38:10;147924.34;;;7.47;100.00
6034;BME280;3045;43.226;27.858;2023-12-22T07:40:37;147940.75;;;7.54;100.00
6034;BME280;3045;43.226;27.858;2023-12-22T07:43:05;147995.00;;;7.75;100.00
6034;BME280;3045;43.226;27.858;2023-12-22T07:45:32;148037.88;;;7.93;100.00
6034;BME280;3045;43.226;27.858;2023-12-22T07:47:59;148069.41;;;8.05;100.00
6034;BME280;3045;43.226;27.858;2023-12-22T07:50:27;148073.16;;;8.07;100.00
6034;BME280;3045;43.226;27.858;2023-12-22T07:52:54;148127.41;;;8.28;100.00
6034;BME280;3045;43.226;27.858;2023-12-22T07:55:21;148146.38;;;8.36;100.00
6034;BME280;3045;43.226;27.858;2023-12-22T07:57:48;148213.28;;;8.63;100.00
6034;BME280;3045;43.226;27.858;2023-12-22T08:00:16;148222.09;;;8.66;100.00
6034;BME280;3045;43.226;27.858;2023-12-22T08:02:43;148258.72;;;8.81;100.00
6034;BME280;3045;43.226;27.858;2023-12-22T08:05:11;148310.47;;;9.02;100.00
6034;BME280;3045;43.226;27.858;2023-12-22T08:07:40;148411.47;;;9.42;100.00
6034;BME280;3045;43.226;27.858;2023-12-22T08:10:09;148542.84;;;9.95;100.00
6034;BME280;3045;43.226;27.858;2023-12-22T08:12:36;148614.91;;;10.24;100.00
6034;BME280;3045;43.226;27.858;2023-12-22T08:15:04;148633.84;;;10.31;100.00
6034;BME280;3045;43.226;27.858;2023-12-22T08:17:32;148635.13;;;10.32;100.00
6034;BME280;3045;43.226;27.858;2023-12-22T08:19:59;148659.16;;;10.41;100.00
6034;BME280;3045;43.226;27.858;2023-12-22T08:22:26;148649.03;;;10.37;100.00
6034;BME280;3045;43.226;27.858;2023-12-22T08:24:54;148607.34;;;10.21;100.00
6034;BME280;3045;43.226;27.858;2023-12-22T08:27:22;148593.41;;;10.15;100.00
6034;BME280;3045;43.226;27.858;2023-12-22T08:29:49;148570.63;;;10.06;100.00
6034;BME280;3045;43.226;27.858;2023-12-22T08:32:16;148537.81;;;9.93;100.00
6034;BME280;3045;43.226;27.858;2023-12-22T08:34:45;148552.94;;;9.99;100.00
6034;BME280;3045;43.226;27.858;2023-12-22T08:37:12;148568.13;;;10.05;100.00
6034;BME280;3045;43.226;27.858;2023-12-22T08:39:39;148559.25;;;10.01;100.00
6034;BME280;3045;43.226;27.858;2023-12-22T08:42:07;148499.88;;;9.78;100.00
6034;BME280;3045;43.226;27.858;2023-12-22T08:44:35;148494.88;;;9.76;100.00
6034;BME280;3045;43.226;27.858;2023-12-22T08:47:02;148454.41;;;9.59;100.00
6034;BME280;3045;43.226;27.858;2023-12-22T08:49:29;148458.22;;;9.61;100.00
6034;BME280;3045;43.226;27.858;2023-12-22T08:51:57;148468.31;;;9.65;100.00
6034;BME280;3045;43.226;27.858;2023-12-22T08:54:24;148443.03;;;9.55;100.00
6034;BME280;3045;43.226;27.858;2023-12-22T08:56:52;148414.00;;;9.43;100.00
6034;BME280;3045;43.226;27.858;2023-12-22T08:59:20;148424.09;;;9.47;100.00
6034;BME280;3045;43.226;27.858;2023-12-22T09:01:47;148422.81;;;9.47;100.00
6034;BME280;3045;43.226;27.858;2023-12-22T09:04:14;148429.16;;;9.49;100.00
6034;BME280;3045;43.226;27.858;2023-12-22T09:06:42;148450.66;;;9.58;100.00
6034;BME280;3045;43.226;27.858;2023-12-22T09:09:09;148438.00;;;9.53;100.00
6034;BME280;3045;43.226;27.858;2023-12-22T09:11:36;148350.88;;;9.18;100.00
6034;BME280;3045;43.226;27.858;2023-12-22T09:14:05;148396.34;;;9.36;100.00
6034;BME280;3045;43.226;27.858;2023-12-22T09:16:36;148432.94;;;9.51;100.00
6034;BME280;3045;43.226;27.858;2023-12-22T09:19:04;148453.13;;;9.59;100.00
6034;BME280;3045;43.226;27.858;2023-12-22T09:21:31;148440.53;;;9.54;100.00
6034;BME280;3045;43.226;27.858;2023-12-22T09:23:58;148416.53;;;9.44;100.00
6034;BME280;3045;43.226;27.858;2023-12-22T09:26:25;148374.88;;;9.28;100.00
6034;BME280;3045;43.226;27.858;2023-12-22T09:28:54;148381.16;;;9.30;100.00
6034;BME280;3045;43.226;27.858;2023-12-22T09:31:22;148366.03;;;9.24;100.00
6034;BME280;3045;43.226;27.858;2023-12-22T09:33:50;148360.97;;;9.22;100.00
6034;BME280;3045;43.226;27.858;2023-12-22T09:36:17;148353.41;;;9.19;100.00
6034;BME280;3045;43.226;27.858;2023-12-22T09:38:44;148348.31;;;9.17;100.00
6034;BME280;3045;43.226;27.858;2023-12-22T09:41:11;148353.41;;;9.19;100.00
6034;BME280;3045;43.226;27.858;2023-12-22T09:43:39;148357.22;;;9.21;100.00
6034;BME280;3045;43.226;27.858;2023-12-22T09:46:07;148406.44;;;9.40;100.00
6034;BME280;3045;43.226;27.858;2023-12-22T09:48:36;148410.25;;;9.42;100.00
6034;BME280;3045;43.226;27.858;2023-12-22T09:51:07;148403.91;;;9.39;100.00
6034;BME280;3045;43.226;27.858;2023-12-22T09:53:35;148440.53;;;9.54;100.00
6034;BME280;3045;43.226;27.858;2023-12-22T09:56:06;148459.47;;;9.61;100.00
6034;BME280;3045;43.226;27.858;2023-12-22T09:58:34;148446.84;;;9.56;100.00
6034;BME280;3045;43.226;27.858;2023-12-22T10:01:02;148449.38;;;9.57;100.00
6034;BME280;3045;43.226;27.858;2023-12-22T10:03:33;148459.47;;;9.61;100.00
6034;BME280;3045;43.226;27.858;2023-12-22T10:06:00;148448.09;;;9.57;100.00
6034;BME280;3045;43.226;27.858;2023-12-22T10:08:30;148497.34;;;9.77;100.00
6034;BME280;3045;43.226;27.858;2023-12-22T10:10:57;148530.19;;;9.90;100.00
6034;BME280;3045;43.226;27.858;2023-12-22T10:13:25;148568.13;;;10.05;100.00
6034;BME280;3045;43.226;27.858;2023-12-22T10:15:54;148561.78;;;10.02;100.00
6034;BME280;3045;43.226;27.858;2023-12-22T10:18:22;148617.44;;;10.25;100.00
6034;BME280;3045;43.226;27.858;2023-12-22T10:20:49;148590.88;;;10.14;100.00
6034;BME280;3045;43.226;27.858;2023-12-22T10:23:16;148636.38;;;10.32;100.00
6034;BME280;3045;43.226;27.858;2023-12-22T10:25:45;148673.06;;;10.47;100.00
6034;BME280;3045;43.226;27.858;2023-12-22T10:28:13;148708.44;;;10.61;100.00
6034;BME280;3045;43.226;27.858;2023-12-22T10:30:42;148750.13;;;10.78;100.00
6034;BME280;3045;43.226;27.858;2023-12-22T10:33:11;148771.63;;;10.86;100.00
6034;BME280;3045;43.226;27.858;2023-12-22T10:35:38;148759.03;;;10.81;100.00
6034;BME280;3045;43.226;27.858;2023-12-22T10:38:08;148814.63;;;11.04;100.00
6034;BME280;3045;43.226;27.858;2023-12-22T10:40:37;148850.03;;;11.18;100.00
6034;BME280;3045;43.226;27.858;2023-12-22T10:43:06;148851.31;;;11.18;100.00
6034;BME280;3045;43.226;27.858;2023-12-22T10:45:33;148845.00;;;11.16;100.00
6034;BME280;3045;43.226;27.858;2023-12-22T10:48:00;148862.72;;;11.23;100.00
6034;BME280;3045;43.226;27.858;2023-12-22T10:50:28;148851.31;;;11.18;100.00
6034;BME280;3045;43.226;27.858;2023-12-22T10:52:55;148834.91;;;11.12;100.00
6034;BME280;3045;43.226;27.858;2023-12-22T10:55:22;148823.50;;;11.07;100.00
6034;BME280;3045;43.226;27.858;2023-12-22T10:57:50;148843.75;;;11.15;100.00
6034;BME280;3045;43.226;27.858;2023-12-22T11:00:20;148890.50;;;11.34;100.00
6034;BME280;3045;43.226;27.858;2023-12-22T11:02:47;148896.84;;;11.36;100.00
6034;BME280;3045;43.226;27.858;2023-12-22T11:05:15;148886.75;;;11.32;100.00
6034;BME280;3045;43.226;27.858;2023-12-22T11:07:48;148856.34;;;11.20;100.00
6034;BME280;3045;43.226;27.858;2023-12-22T11:10:18;148865.25;;;11.24;100.00
6034;BME280;3045;43.226;27.858;2023-12-22T11:12:47;148853.84;;;11.19;100.00
6034;BME280;3045;43.226;27.858;2023-12-22T11:15:15;148822.25;;;11.07;100.00
6034;BME280;3045;43.226;27.858;2023-12-22T11:17:44;148831.09;;;11.10;100.00
6034;BME280;3045;43.226;27.858;2023-12-22T11:20:13;148829.81;;;11.10;100.00
6034;BME280;3045;43.226;27.858;2023-12-22T11:22:42;148872.81;;;11.27;100.00
6034;BME280;3045;43.226;27.858;2023-12-22T11:25:09;148851.31;;;11.18;100.00
6034;BME280;3045;43.226;27.858;2023-12-22T11:27:37;148867.75;;;11.25;100.00
6034;BME280;3045;43.226;27.858;2023-12-22T11:30:06;148880.41;;;11.30;100.00
6034;BME280;3045;43.226;27.858;2023-12-22T11:32:35;148889.25;;;11.33;100.00
6034;BME280;3045;43.226;27.858;2023-12-22T11:35:04;148872.81;;;11.27;100.00
6034;BME280;3045;43.226;27.858;2023-12-22T11:37:34;148812.13;;;11.03;100.00
6034;BME280;3045;43.226;27.858;2023-12-22T11:40:03;148852.59;;;11.19;100.00
6034;BME280;3045;43.226;27.858;2023-12-22T11:42:34;148839.94;;;11.14;100.00
6034;BME280;3045;43.226;27.858;2023-12-22T11:45:04;148772.91;;;10.87;100.00
6034;BME280;3045;43.226;27.858;2023-12-22T11:47:32;148785.56;;;10.92;100.00
6034;BME280;3045;43.226;27.858;2023-12-22T11:50:00;148831.09;;;11.10;100.00
6034;BME280;3045;43.226;27.858;2023-12-22T11:52:28;148826.00;;;11.08;100.00
6034;BME280;3045;43.226;27.858;2023-12-22T11:54:56;148826.00;;;11.08;100.00
6034;BME280;3045;43.226;27.858;2023-12-22T11:57:33;148847.50;;;11.17;100.00
6034;BME280;3045;43.226;27.858;2023-12-22T12:00:03;148879.13;;;11.29;100.00
6034;BME280;3045;43.226;27.858;2023-12-22T12:02:33;148884.22;;;11.31;100.00
6034;BME280;3045;43.226;27.858;2023-12-22T12:05:01;148881.66;;;11.30;100.00
6034;BME280;3045;43.226;27.858;2023-12-22T12:07:40;148894.31;;;11.35;100.00
6034;BME280;3045;43.226;27.858;2023-12-22T12:10:10;148856.34;;;11.20;100.00
6034;BME280;3045;43.226;27.858;2023-12-22T12:12:38;148900.63;;;11.38;100.00
6034;BME280;3045;43.226;27.858;2023-12-22T12:15:10;148881.66;;;11.30;100.00
6034;BME280;3045;43.226;27.858;2023-12-22T12:17:41;148909.47;;;11.41;100.00
6034;BME280;3045;43.226;27.858;2023-12-22T12:20:10;148893.06;;;11.35;100.00
6034;BME280;3045;43.226;27.858;2023-12-22T12:22:39;148906.97;;;11.40;100.00
6034;BME280;3045;43.226;27.858;2023-12-22T12:25:10;148906.97;;;11.40;100.00
6034;BME280;3045;43.226;27.858;2023-12-22T12:27:38;148903.16;;;11.39;100.00
6034;BME280;3045;43.226;27.858;2023-12-22T12:30:14;148833.63;;;11.11;100.00
6034;BME280;3045;43.226;27.858;2023-12-22T12:32:43;148856.34;;;11.20;100.00
6034;BME280;3045;43.226;27.858;2023-12-22T12:35:11;148850.03;;;11.18;100.00
6034;BME280;3045;43.226;27.858;2023-12-22T12:37:40;148851.31;;;11.18;100.00
6034;BME280;3045;43.226;27.858;2023-12-22T12:40:08;148767.88;;;10.85;100.00
6034;BME280;3045;43.226;27.858;2023-12-22T12:42:37;148827.28;;;11.09;100.00
6034;BME280;3045;43.226;27.858;2023-12-22T12:45:05;148861.44;;;11.22;100.00
6034;BME280;3045;43.226;27.858;2023-12-22T12:47:34;148863.97;;;11.23;100.00
6034;BME280;3045;43.226;27.858;2023-12-22T12:50:01;148842.47;;;11.15;100.00
6034;BME280;3045;43.226;27.858;2023-12-22T12:52:28;148841.19;;;11.14;100.00
6034;BME280;3045;43.226;27.858;2023-12-22T12:54:57;148838.66;;;11.13;100.00
6034;BME280;3045;43.226;27.858;2023-12-22T12:57:26;148813.41;;;11.03;100.00
6034;BME280;3045;43.226;27.858;2023-12-22T12:59:53;148777.97;;;10.89;100.00
6034;BME280;3045;43.226;27.858;2023-12-22T13:02:20;148764.06;;;10.83;100.00
6034;BME280;3045;43.226;27.858;2023-12-22T13:04:49;148772.91;;;10.87;100.00
6034;BME280;3045;43.226;27.858;2023-12-22T13:07:25;148788.09;;;10.93;100.00